createdAt,value
2018-12-25T00:07:39.742Z,-0.24
2018-12-25T00:10:06.933Z,-0.22
2018-12-25T00:12:53.598Z,-0.15
2018-12-25T00:15:20.662Z,-0.06
2018-12-25T00:17:47.839Z,-0.03
2018-12-25T00:20:15.503Z,0.10
2018-12-25T00:23:03.930Z,-0.01
2018-12-25T00:25:31.167Z,-0.08
2018-12-25T00:27:58.365Z,-0.15
2018-12-25T00:30:25.551Z,-0.17
2018-12-25T00:32:52.863Z,-0.22
2018-12-25T00:35:39.854Z,-0.20
2018-12-25T00:38:26.914Z,-0.19
2018-12-25T00:40:54.086Z,-0.24
2018-12-25T00:43:21.358Z,-0.27
2018-12-25T00:46:08.025Z,-0.35
2018-12-25T00:48:35.188Z,-0.41
2018-12-25T00:51:02.419Z,-0.39
2018-12-25T00:53:29.781Z,-0.39
2018-12-25T00:55:56.983Z,-0.47
2018-12-25T01:01:04.127Z,-0.58
2018-12-25T01:03:31.345Z,-0.51
2018-12-25T01:05:58.418Z,-0.49
2018-12-25T01:08:25.972Z,-0.61
2018-12-25T01:11:12.588Z,-0.75
2018-12-25T01:14:20.550Z,-0.77
2018-12-25T01:20:07.637Z,-0.82
2018-12-25T01:22:34.847Z,-0.96
2018-12-25T01:25:02.026Z,-1.06
2018-12-25T01:31:04.202Z,-1.15
2018-12-25T01:34:12.210Z,-1.22
2018-12-25T01:36:58.882Z,-1.30
2018-12-25T01:39:25.956Z,-1.34
2018-12-25T01:42:12.648Z,-1.39
2018-12-25T01:44:39.706Z,-1.43
2018-12-25T01:47:06.915Z,-1.46
2018-12-25T01:50:15.231Z,-1.48
2018-12-25T01:52:42.434Z,-1.42
2018-12-25T01:55:29.113Z,-1.19
2018-12-25T01:57:56.297Z,-1.23
2018-12-25T02:00:42.874Z,-1.31
2018-12-25T02:03:10.046Z,-1.34
2018-12-25T02:05:37.504Z,-1.31
2018-12-25T02:08:05.052Z,-1.37
2018-12-25T02:10:32.239Z,-1.40
2018-12-25T02:13:18.887Z,-1.44
2018-12-25T02:15:46.327Z,-1.47
2018-12-25T02:18:13.551Z,-1.47
2018-12-25T02:21:21.475Z,-1.25
2018-12-25T02:27:28.008Z,-1.04
2018-12-25T02:29:55.240Z,-1.09
2018-12-25T02:32:24.329Z,-1.17
2018-12-25T02:34:51.751Z,-1.27
2018-12-25T02:37:18.850Z,-1.36
2018-12-25T02:39:46.064Z,-1.43
2018-12-25T02:42:24.933Z,-1.38
2018-12-25T02:44:52.082Z,-1.38
2018-12-25T02:47:19.240Z,-1.15
2018-12-25T02:49:50.412Z,-1.11
2018-12-25T02:52:22.430Z,-1.02
2018-12-25T02:54:50.041Z,-0.93
2018-12-25T02:57:36.646Z,-0.99
2018-12-25T03:00:46.604Z,-0.98
2018-12-25T03:03:34.015Z,-0.91
2018-12-25T03:06:41.956Z,-0.73
2018-12-25T03:09:09.132Z,-0.69
2018-12-25T03:11:36.346Z,-0.65
2018-12-25T03:14:23.129Z,-0.40
2018-12-25T03:17:09.734Z,-0.42
2018-12-25T03:19:36.941Z,-0.23
2018-12-25T03:22:23.579Z,-0.23
2018-12-25T03:24:50.794Z,-0.13
2018-12-25T03:27:17.955Z,-0.07
2018-12-25T03:30:04.636Z,0.10
2018-12-25T03:32:51.311Z,0.38
2018-12-25T03:35:18.791Z,0.55
2018-12-25T03:37:45.967Z,0.61
2018-12-25T03:40:13.126Z,0.76
2018-12-25T03:42:40.743Z,0.88
2018-12-25T03:51:36.852Z,1.11
2018-12-25T03:57:24.475Z,1.33
2018-12-25T03:59:51.630Z,1.39
2018-12-25T04:02:18.818Z,1.39
2018-12-25T04:04:46.038Z,1.45
2018-12-25T04:07:13.196Z,1.51
2018-12-25T04:09:40.351Z,1.59
2018-12-25T04:12:48.383Z,1.62
2018-12-25T04:15:15.438Z,1.68
2018-12-25T04:21:03.763Z,1.76
2018-12-25T04:23:50.433Z,1.87
2018-12-25T04:26:58.469Z,1.86
2018-12-25T04:29:45.116Z,1.85
2018-12-25T04:32:31.882Z,1.89
2018-12-25T04:34:59.077Z,1.97
2018-12-25T04:37:26.245Z,1.88
2018-12-25T04:45:35.005Z,1.92
2018-12-25T04:48:02.173Z,2.06
2018-12-25T04:50:41.487Z,2.05
2018-12-25T04:53:08.675Z,2.07
2018-12-25T04:55:35.921Z,2.02
2018-12-25T04:58:43.900Z,2.05
2018-12-25T05:04:10.322Z,1.98
2018-12-25T05:06:37.525Z,2.04
2018-12-25T05:09:37.713Z,2.02
2018-12-25T05:12:05.268Z,1.99
2018-12-25T05:14:32.448Z,1.98
2018-12-25T05:16:59.641Z,1.95
2018-12-25T05:19:46.301Z,2.00
2018-12-25T05:22:13.813Z,2.09
2018-12-25T05:24:40.966Z,2.03
2018-12-25T05:27:27.750Z,1.96
2018-12-25T05:29:55.222Z,1.99
2018-12-25T05:32:41.928Z,1.97
2018-12-25T05:35:09.087Z,2.03
2018-12-25T05:37:36.297Z,2.15
2018-12-25T05:40:15.017Z,2.28
2018-12-25T05:46:02.307Z,2.22
2018-12-25T05:48:41.615Z,2.26
2018-12-25T05:51:28.255Z,2.20
2018-12-25T05:53:55.449Z,2.23
2018-12-25T05:56:22.598Z,2.22
2018-12-25T05:58:49.852Z,2.21
2018-12-25T06:01:17.010Z,2.27
2018-12-25T06:03:44.190Z,2.30
2018-12-25T06:06:11.380Z,2.34
2018-12-25T06:08:38.558Z,2.32
2018-12-25T06:11:05.616Z,2.22
2018-12-25T06:13:52.301Z,2.28
2018-12-25T06:16:19.473Z,2.30
2018-12-25T06:18:46.661Z,2.28
2018-12-25T06:21:45.762Z,2.28
2018-12-25T06:24:13.315Z,2.32
2018-12-25T06:26:40.393Z,2.25
2018-12-25T06:31:48.242Z,2.25
2018-12-25T06:34:34.904Z,2.25
2018-12-25T06:37:21.603Z,2.19
2018-12-25T06:43:01.516Z,2.17
2018-12-25T06:45:40.824Z,2.21
2018-12-25T06:48:27.689Z,2.18
2018-12-25T06:51:14.239Z,2.13
2018-12-25T06:53:42.083Z,2.20
2018-12-25T06:56:09.619Z,2.22
2018-12-25T06:58:36.785Z,2.17
2018-12-25T07:01:04.005Z,2.25
2018-12-25T07:03:31.194Z,2.20
2018-12-25T07:05:58.284Z,2.12
2018-12-25T07:11:05.457Z,2.21
2018-12-25T07:13:52.312Z,2.22
2018-12-25T07:16:38.935Z,2.15
2018-12-25T07:19:25.740Z,2.14
2018-12-25T07:21:52.885Z,2.21
2018-12-25T07:24:31.639Z,2.13
2018-12-25T07:26:58.802Z,2.00
2018-12-25T07:29:45.363Z,1.95
2018-12-25T07:35:25.471Z,2.04
2018-12-25T07:37:52.673Z,2.09
2018-12-25T07:46:01.381Z,2.19
2018-12-25T07:48:28.534Z,2.20
2018-12-25T07:50:55.697Z,2.25
2018-12-25T07:53:42.721Z,2.19
2018-12-25T07:56:09.889Z,2.15
2018-12-25T07:58:37.068Z,2.27
2018-12-25T08:01:04.325Z,2.24
2018-12-25T08:03:50.961Z,2.36
2018-12-25T08:09:11.614Z,2.37
2018-12-25T08:11:38.847Z,2.43
2018-12-25T08:14:25.652Z,2.33
2018-12-25T08:17:12.437Z,2.37
2018-12-25T08:19:39.605Z,2.36
2018-12-25T08:22:06.801Z,2.31
2018-12-25T08:27:35.362Z,2.45
2018-12-25T08:30:02.562Z,2.51
2018-12-25T08:33:01.665Z,2.44
2018-12-25T08:35:28.749Z,2.53
2018-12-25T08:38:02.663Z,2.66
2018-12-25T08:40:29.889Z,2.69
2018-12-25T08:42:57.060Z,2.63
2018-12-25T08:45:24.213Z,2.61
2018-12-25T08:47:51.410Z,2.66
2018-12-25T08:50:18.605Z,2.77
2018-12-25T08:53:05.172Z,2.90
2018-12-25T08:59:18.039Z,2.97
2018-12-25T09:01:45.257Z,3.02
2018-12-25T09:04:31.942Z,3.03
2018-12-25T09:07:06.009Z,3.11
2018-12-25T09:09:52.700Z,3.08
2018-12-25T09:12:19.867Z,3.08
2018-12-25T09:15:27.906Z,3.26
2018-12-25T09:17:55.126Z,3.27
2018-12-25T09:20:22.302Z,3.27
2018-12-25T09:22:49.556Z,3.29
2018-12-25T09:25:16.732Z,3.34
2018-12-25T09:27:43.944Z,3.46
2018-12-25T09:30:11.432Z,3.49
2018-12-25T09:32:38.676Z,3.53
2018-12-25T09:35:05.851Z,3.59
2018-12-25T09:37:33.076Z,3.69
2018-12-25T09:40:00.243Z,3.82
2018-12-25T09:42:27.906Z,3.87
2018-12-25T09:50:57.117Z,4.15
2018-12-25T09:53:44.147Z,4.20
2018-12-25T09:59:32.311Z,4.34
2018-12-25T10:02:19.065Z,4.41
2018-12-25T10:04:46.293Z,4.48
2018-12-25T10:07:54.276Z,4.53
2018-12-25T10:10:21.517Z,4.51
2018-12-25T10:13:08.264Z,4.56
2018-12-25T10:15:35.418Z,4.62
2018-12-25T10:18:02.870Z,4.70
2018-12-25T10:23:30.991Z,4.63
2018-12-25T10:25:58.177Z,4.67
2018-12-25T10:28:25.722Z,4.75
2018-12-25T10:31:12.484Z,4.82
2018-12-25T10:37:13.754Z,4.96
2018-12-25T10:39:40.969Z,4.91
2018-12-25T10:42:08.057Z,5.05
2018-12-25T10:45:16.103Z,5.14
2018-12-25T10:47:43.265Z,5.27
2018-12-25T10:50:10.822Z,5.30
2018-12-25T10:55:38.858Z,5.24
2018-12-25T11:04:37.547Z,5.49
2018-12-25T11:15:47.387Z,6.03
2018-12-25T11:18:49.229Z,6.11
2018-12-25T11:23:56.232Z,6.32
2018-12-25T11:26:23.465Z,6.38
2018-12-25T11:35:12.926Z,6.60
2018-12-25T11:38:21.021Z,6.71
2018-12-25T11:40:48.264Z,6.85
2018-12-25T11:43:15.735Z,7.02
2018-12-25T11:46:02.673Z,7.15
2018-12-25T11:48:29.836Z,7.23
2018-12-25T11:50:56.938Z,7.26
2018-12-25T11:53:24.158Z,7.14
2018-12-25T11:55:51.354Z,6.99
2018-12-25T11:58:18.556Z,6.79
2018-12-25T12:04:06.055Z,6.48
2018-12-25T12:06:52.756Z,6.43
2018-12-25T12:09:39.474Z,6.51
2018-12-25T12:15:26.964Z,6.57
2018-12-25T12:17:54.173Z,6.37
2018-12-25T12:20:21.341Z,6.27
2018-12-25T12:22:48.571Z,6.22
2018-12-25T12:25:15.742Z,6.23
2018-12-25T12:27:42.954Z,6.31
2018-12-25T12:30:10.946Z,6.41
2018-12-25T12:32:38.523Z,6.37
2018-12-25T12:35:05.703Z,6.33
2018-12-25T12:38:14.064Z,6.32
2018-12-25T12:40:41.238Z,6.32
2018-12-25T12:43:27.996Z,6.38
2018-12-25T12:45:55.205Z,6.44
2018-12-25T12:48:22.388Z,6.42
2018-12-25T12:53:49.427Z,6.25
2018-12-25T12:56:16.596Z,6.25
2018-12-25T13:02:04.505Z,6.28
2018-12-25T13:04:51.236Z,6.28
2018-12-25T13:07:59.297Z,6.20
2018-12-25T13:10:26.529Z,6.15
2018-12-25T13:12:53.723Z,6.03
2018-12-25T13:15:21.327Z,5.96
2018-12-25T13:20:29.931Z,5.95
2018-12-25T13:23:09.015Z,5.99
2018-12-25T13:28:37.039Z,5.79
2018-12-25T13:31:45.064Z,5.69
2018-12-25T13:34:31.855Z,5.70
2018-12-25T13:36:58.968Z,5.76
2018-12-25T13:39:26.507Z,5.86
2018-12-25T13:42:34.517Z,6.00
2018-12-25T13:45:01.620Z,6.03
2018-12-25T13:47:31.260Z,6.00
2018-12-25T13:50:18.048Z,6.02
2018-12-25T13:52:45.222Z,5.94
2018-12-25T13:58:13.514Z,5.83
2018-12-25T14:03:49.075Z,5.60
2018-12-25T14:06:16.256Z,5.59
2018-12-25T14:08:56.257Z,5.59
2018-12-25T14:11:23.843Z,5.67
2018-12-25T14:14:31.906Z,5.74
2018-12-25T14:20:00.880Z,5.68
2018-12-25T14:22:28.083Z,5.76
2018-12-25T14:24:55.325Z,5.81
2018-12-25T14:30:16.145Z,5.67
2018-12-25T14:32:43.412Z,5.57
2018-12-25T14:38:23.412Z,5.45
2018-12-25T14:41:02.980Z,5.38
2018-12-25T14:43:30.556Z,5.36
2018-12-25T14:45:57.764Z,5.36
2018-12-25T14:48:44.471Z,5.36
2018-12-25T14:51:11.800Z,5.31
2018-12-25T14:53:38.977Z,5.31
2018-12-25T14:56:06.214Z,5.30
2018-12-25T14:58:33.695Z,5.31
2018-12-25T15:01:41.766Z,5.32
2018-12-25T15:07:29.398Z,5.12
2018-12-25T15:09:56.643Z,5.02
2018-12-25T15:12:43.333Z,4.98
2018-12-25T15:15:10.943Z,5.06
2018-12-25T15:17:38.125Z,4.96
2018-12-25T15:20:46.539Z,4.89
2018-12-25T15:26:12.966Z,4.72
2018-12-25T15:31:41.213Z,4.67
2018-12-25T15:37:09.584Z,4.62
2018-12-25T15:39:36.716Z,4.46
2018-12-25T15:42:03.921Z,4.32
2018-12-25T15:45:11.855Z,4.23
2018-12-25T15:47:39.046Z,4.22
2018-12-25T15:50:47.474Z,4.23
2018-12-25T15:53:14.828Z,4.28
2018-12-25T15:55:42.041Z,4.24
2018-12-25T16:01:10.536Z,4.17
2018-12-25T16:03:37.711Z,4.20
2018-12-25T16:06:36.838Z,4.27
2018-12-25T16:18:29.827Z,4.23
2018-12-25T16:20:56.934Z,4.26
2018-12-25T16:23:45.559Z,4.29
2018-12-25T16:26:51.928Z,4.32
2018-12-25T16:29:19.890Z,4.32
2018-12-25T16:32:06.418Z,4.35
2018-12-25T16:34:33.947Z,4.33
2018-12-25T16:37:42.116Z,4.30
2018-12-25T16:40:09.338Z,4.30
2018-12-25T16:42:36.559Z,4.27
2018-12-25T16:45:04.231Z,4.25
2018-12-25T16:47:31.391Z,4.33
2018-12-25T16:49:58.584Z,4.34
2018-12-25T16:52:25.706Z,4.39
2018-12-25T16:54:53.640Z,4.36
2018-12-25T17:00:41.156Z,4.34
2018-12-25T17:06:09.666Z,4.30
2018-12-25T17:08:36.775Z,4.35
2018-12-25T17:11:03.968Z,4.34
2018-12-25T17:13:31.206Z,4.28
2018-12-25T17:18:37.584Z,4.16
2018-12-25T17:21:04.760Z,4.21
2018-12-25T17:23:32.002Z,4.26
2018-12-25T17:25:59.234Z,4.18
2018-12-25T17:28:27.844Z,4.15
2018-12-25T17:31:15.282Z,4.21
2018-12-25T17:39:57.180Z,4.15
2018-12-25T17:42:24.401Z,4.14
2018-12-25T17:47:50.294Z,4.15
2018-12-25T17:50:17.529Z,4.16
2018-12-25T17:52:44.811Z,4.21
2018-12-25T17:55:31.405Z,4.25
2018-12-25T17:58:18.095Z,4.25
2018-12-25T18:00:45.329Z,4.27
2018-12-25T18:03:31.985Z,4.23
2018-12-25T18:06:40.060Z,4.23
2018-12-25T18:12:29.942Z,4.26
2018-12-25T18:14:57.554Z,4.24
2018-12-25T18:20:45.494Z,4.18
2018-12-25T18:23:13.060Z,4.15
2018-12-25T18:25:40.283Z,4.12
2018-12-25T18:28:48.330Z,4.09
2018-12-25T18:31:15.770Z,4.04
2018-12-25T18:34:02.457Z,3.94
2018-12-25T18:43:17.733Z,3.79
2018-12-25T18:45:44.993Z,3.75
2018-12-25T18:48:12.231Z,3.74
2018-12-25T18:50:39.323Z,3.68
2018-12-25T18:53:06.508Z,3.64
2018-12-25T18:55:53.163Z,3.67
2018-12-25T19:01:34.829Z,3.56
2018-12-25T19:04:21.515Z,3.72
2018-12-25T19:07:08.305Z,3.54
2018-12-25T19:09:35.513Z,3.32
2018-12-25T19:12:02.763Z,3.15
2018-12-25T19:14:29.964Z,3.05
2018-12-25T19:17:09.855Z,3.11
2018-12-25T19:19:37.085Z,3.05
2018-12-25T19:22:04.285Z,2.94
2018-12-25T19:24:36.195Z,2.98
2018-12-25T19:27:06.713Z,3.08
2018-12-25T19:33:39.710Z,3.22
2018-12-25T19:39:29.587Z,3.55
2018-12-25T19:41:56.822Z,3.61
2018-12-25T19:44:24.006Z,3.68
2018-12-25T19:46:51.219Z,3.58
2018-12-25T19:49:18.470Z,3.44
2018-12-25T19:51:45.693Z,3.38
2018-12-25T19:54:12.913Z,3.40
2018-12-25T19:59:18.043Z,3.43
2018-12-25T20:01:45.649Z,3.54
2018-12-25T20:04:53.743Z,3.67
2018-12-25T20:08:16.664Z,3.78
2018-12-25T20:11:20.945Z,3.93
2018-12-25T20:14:27.079Z,3.91
2018-12-25T20:17:33.299Z,3.87
2018-12-25T20:24:23.297Z,3.71
2018-12-25T20:27:29.578Z,3.53
2018-12-25T20:30:35.773Z,3.41
2018-12-25T20:37:10.066Z,3.13
2018-12-25T20:40:16.470Z,2.98
2018-12-25T20:43:22.674Z,3.00
2018-12-25T20:46:28.753Z,2.91
2018-12-25T20:49:32.663Z,2.84
2018-12-25T20:52:38.767Z,2.77
2018-12-25T20:55:45.016Z,2.83
2018-12-25T20:58:51.150Z,2.99
2018-12-25T21:01:57.292Z,2.68
2018-12-25T21:08:40.460Z,2.29
2018-12-25T21:11:46.593Z,2.08
2018-12-25T21:14:52.780Z,2.04
2018-12-25T21:17:58.911Z,1.92
2018-12-25T21:24:48.894Z,1.59
2018-12-25T21:27:35.038Z,1.51
2018-12-25T21:30:44.410Z,1.45
2018-12-25T21:33:11.741Z,1.36
2018-12-25T21:36:19.725Z,1.17
2018-12-25T21:38:46.901Z,1.10
2018-12-25T21:41:54.963Z,0.99
2018-12-25T21:47:13.475Z,0.89
2018-12-25T22:08:23.081Z,1.24
2018-12-25T22:10:50.179Z,1.19
2018-12-25T22:13:17.374Z,1.11
2018-12-25T22:15:44.483Z,1.04
2018-12-25T22:18:12.067Z,1.01
2018-12-25T22:21:11.299Z,0.92
2018-12-25T22:23:38.523Z,0.77
2018-12-25T22:26:05.836Z,0.65
2018-12-25T22:28:54.694Z,0.55
2018-12-25T22:31:22.236Z,0.49
2018-12-25T22:33:49.444Z,0.40
2018-12-25T22:36:16.964Z,0.47
2018-12-25T22:38:44.207Z,0.45
2018-12-25T22:41:11.380Z,0.33
2018-12-25T22:43:38.989Z,0.35
2018-12-25T22:46:46.981Z,0.42
2018-12-25T22:49:14.261Z,0.44
2018-12-25T22:51:41.402Z,0.41
2018-12-25T22:54:08.600Z,0.46
2018-12-25T22:59:35.468Z,0.27
2018-12-25T23:02:02.956Z,0.16
2018-12-25T23:04:30.172Z,0.14
2018-12-25T23:06:57.766Z,0.18
2018-12-25T23:09:44.441Z,0.07
2018-12-25T23:12:11.619Z,-0.02
2018-12-25T23:14:38.818Z,-0.05
2018-12-25T23:17:06.062Z,0.02
2018-12-25T23:19:33.289Z,-0.03
2018-12-25T23:22:19.952Z,-0.05
2018-12-25T23:24:47.628Z,-0.08
2018-12-25T23:27:14.788Z,-0.16
2018-12-25T23:29:42.029Z,-0.16
2018-12-25T23:32:09.199Z,-0.17
2018-12-25T23:34:36.319Z,-0.19
2018-12-25T23:37:03.515Z,-0.08
2018-12-25T23:42:10.265Z,-0.22
2018-12-25T23:44:37.350Z,-0.17
2018-12-25T23:47:04.524Z,-0.23
2018-12-25T23:52:46.366Z,-0.45
2018-12-25T23:55:14.065Z,-0.37
2018-12-25T23:57:41.130Z,-0.46
